Alameda, New Mexico
Current Conditions -  °F | °C
As of 1:48 PM on Saturday 22 Nov 2014 (Local Time) from KAEG Reporting Station
Few Clouds Few Clouds  
Wind Chill: 13°   Ceiling: Unl
Heat Index: 13°   Visibility: 10mi
Dew Point: -6°   Wind: 5mph
Humidity: 26%   Direction: 270°W
Pressure: 29.99"   Gusts: NA
Location:  35.1991°N, 106.662°W
Report Text: KAEG 222048Z 27004KT 10SM FEW200 13/M06 A2999
Loading
Personal Weather Stations






























Interactive Weather Map New forecast layout! Learn more

10-Day Weather Forecast

Advertisements
Track Severe Weather on mobile